createdAt,value
2023-04-26T00:00:16.985Z,52.62
2023-04-26T00:01:18.812Z,52.69
2023-04-26T00:02:20.686Z,52.73
2023-04-26T00:03:22.678Z,52.77
2023-04-26T00:04:24.650Z,52.85
2023-04-26T00:05:26.674Z,53.01
2023-04-26T00:06:28.449Z,52.98
2023-04-26T00:07:30.257Z,52.99
2023-04-26T00:08:32.083Z,53.04
2023-04-26T00:09:33.902Z,53.09
2023-04-26T00:10:35.733Z,53.12
2023-04-26T00:11:37.548Z,53.20
2023-04-26T00:12:39.374Z,53.29
2023-04-26T00:13:41.190Z,53.38
2023-04-26T00:14:43.050Z,53.47
2023-04-26T00:15:44.945Z,53.52
2023-04-26T00:16:46.772Z,53.54
2023-04-26T00:17:48.583Z,53.59
2023-04-26T00:18:50.595Z,53.64
2023-04-26T00:19:52.658Z,53.67
2023-04-26T00:20:54.592Z,53.67
2023-04-26T00:21:56.403Z,53.55
2023-04-26T00:22:58.222Z,53.55
2023-04-26T00:24:00.028Z,53.72
2023-04-26T00:25:01.851Z,53.73
2023-04-26T00:26:03.804Z,53.76
2023-04-26T00:27:05.606Z,53.81
2023-04-26T00:28:07.412Z,53.82
2023-04-26T00:29:09.196Z,53.84
2023-04-26T00:30:11.688Z,53.84
2023-04-26T00:31:13.604Z,53.84
2023-04-26T00:32:15.393Z,53.88
2023-04-26T00:33:17.198Z,53.89
2023-04-26T00:34:18.978Z,53.88
2023-04-26T00:35:20.787Z,53.87
2023-04-26T00:36:22.648Z,53.87
2023-04-26T00:37:24.444Z,53.85
2023-04-26T00:38:26.232Z,53.85
2023-04-26T00:39:28.078Z,53.86
2023-04-26T00:40:29.899Z,53.87
2023-04-26T00:41:31.740Z,53.93
2023-04-26T00:42:33.514Z,53.90
2023-04-26T00:43:35.313Z,53.93
2023-04-26T00:44:37.109Z,53.99
2023-04-26T00:45:38.991Z,54.00
2023-04-26T00:46:40.858Z,54.05
2023-04-26T00:47:42.982Z,54.05
2023-04-26T00:48:44.785Z,54.05
2023-04-26T00:49:46.574Z,54.10
2023-04-26T00:50:48.376Z,54.12
2023-04-26T00:51:50.213Z,54.17
2023-04-26T00:52:52.012Z,54.21
2023-04-26T00:53:53.809Z,54.31
2023-04-26T00:54:55.619Z,54.28
2023-04-26T00:55:57.424Z,54.28
2023-04-26T00:56:59.239Z,54.29
2023-04-26T00:58:01.025Z,54.31
2023-04-26T00:59:02.854Z,54.36
2023-04-26T01:00:04.691Z,54.39
2023-04-26T01:01:06.507Z,54.43
2023-04-26T01:02:08.443Z,54.46
2023-04-26T01:03:10.432Z,54.48
2023-04-26T01:04:12.324Z,54.54
2023-04-26T01:05:14.297Z,54.50
2023-04-26T01:06:16.113Z,54.50
2023-04-26T01:07:21.148Z,54.49
2023-04-26T01:08:22.938Z,54.44
2023-04-26T01:09:24.728Z,54.45
2023-04-26T01:10:26.547Z,54.47
2023-04-26T01:11:31.106Z,54.52
2023-04-26T01:12:32.974Z,54.53
2023-04-26T01:13:34.770Z,54.54
2023-04-26T01:14:36.698Z,54.58
2023-04-26T01:15:38.488Z,54.56
2023-04-26T01:16:40.389Z,54.60
2023-04-26T01:17:42.220Z,54.66
2023-04-26T01:18:44.098Z,54.62
2023-04-26T01:19:45.921Z,54.68
2023-04-26T01:20:47.875Z,54.71
2023-04-26T01:21:49.644Z,54.71
2023-04-26T01:22:51.551Z,54.70
2023-04-26T01:23:53.351Z,54.73
2023-04-26T01:24:55.150Z,54.71
2023-04-26T01:25:56.936Z,54.74
2023-04-26T01:26:58.797Z,54.71
2023-04-26T01:28:00.628Z,54.71
2023-04-26T01:29:02.425Z,54.72
2023-04-26T01:30:04.257Z,54.76
2023-04-26T01:31:06.078Z,54.73
2023-04-26T01:32:07.971Z,54.72
2023-04-26T01:33:09.869Z,54.67
2023-04-26T01:34:11.616Z,54.65
2023-04-26T01:35:13.410Z,54.66
2023-04-26T01:36:15.230Z,54.66
2023-04-26T01:37:17.017Z,54.66
2023-04-26T01:38:18.872Z,54.64
2023-04-26T01:39:20.768Z,54.63
2023-04-26T01:40:22.602Z,54.61
2023-04-26T01:41:24.391Z,54.60
2023-04-26T01:42:26.268Z,54.63
2023-04-26T01:43:28.162Z,54.61
2023-04-26T01:44:29.973Z,54.57
2023-04-26T01:45:31.798Z,54.55
2023-04-26T01:46:33.613Z,54.56
2023-04-26T01:47:35.523Z,54.51
2023-04-26T01:48:37.417Z,54.52
2023-04-26T01:49:39.220Z,54.54
2023-04-26T01:50:41.030Z,54.51
2023-04-26T01:51:42.840Z,54.54
2023-04-26T01:52:44.649Z,54.54
2023-04-26T01:53:46.474Z,54.52
2023-04-26T01:54:48.265Z,54.50
2023-04-26T01:55:50.082Z,54.54
2023-04-26T01:56:51.864Z,54.67
2023-04-26T01:57:53.667Z,54.66
2023-04-26T01:58:55.491Z,54.64
2023-04-26T01:59:57.296Z,54.59
2023-04-26T02:00:59.106Z,54.60
2023-04-26T02:02:01.021Z,54.61
2023-04-26T02:03:02.945Z,54.60
2023-04-26T02:04:04.781Z,54.58
2023-04-26T02:05:06.616Z,54.57
2023-04-26T02:06:08.493Z,54.54
2023-04-26T02:07:10.303Z,54.55
2023-04-26T02:08:12.129Z,54.52
2023-04-26T02:09:13.981Z,54.49
2023-04-26T02:10:15.802Z,54.52
2023-04-26T02:11:17.558Z,54.49
2023-04-26T02:12:19.365Z,54.44
2023-04-26T02:13:21.252Z,54.36
2023-04-26T02:14:23.085Z,54.29
2023-04-26T02:15:24.882Z,54.20
2023-04-26T02:16:26.731Z,54.12
2023-04-26T02:17:28.521Z,54.05
2023-04-26T02:18:30.299Z,53.99
2023-04-26T02:19:32.136Z,53.98
2023-04-26T02:20:33.925Z,53.93
2023-04-26T02:21:35.769Z,53.87
2023-04-26T02:22:37.587Z,53.80
2023-04-26T02:23:39.378Z,53.71
2023-04-26T02:24:41.216Z,53.63
2023-04-26T02:25:43.004Z,53.58
2023-04-26T02:26:44.791Z,53.60
2023-04-26T02:27:46.599Z,53.65
2023-04-26T02:28:48.434Z,53.61
2023-04-26T02:29:50.269Z,53.62
2023-04-26T02:30:52.067Z,53.68
2023-04-26T02:31:54.093Z,53.69
2023-04-26T02:32:55.892Z,53.69
2023-04-26T02:33:57.989Z,53.73
2023-04-26T02:34:59.822Z,53.77
2023-04-26T02:36:01.642Z,53.82
2023-04-26T02:37:03.440Z,53.83
2023-04-26T02:38:05.240Z,53.83
2023-04-26T02:39:07.046Z,53.87
2023-04-26T02:40:09.312Z,53.90
2023-04-26T02:41:11.112Z,53.93
2023-04-26T02:42:12.903Z,54.00
2023-04-26T02:43:14.709Z,54.01
2023-04-26T02:44:16.542Z,54.04
2023-04-26T02:45:18.356Z,54.09
2023-04-26T02:46:20.202Z,54.10
2023-04-26T02:47:22.022Z,54.11
2023-04-26T02:48:23.773Z,54.14
2023-04-26T02:49:25.583Z,54.14
2023-04-26T02:50:27.404Z,54.15
2023-04-26T02:51:29.207Z,54.17
2023-04-26T02:52:31.003Z,54.15
2023-04-26T02:53:32.829Z,54.18
2023-04-26T02:54:34.654Z,54.18
2023-04-26T02:55:36.501Z,54.22
2023-04-26T02:56:38.322Z,54.23
2023-04-26T02:57:40.092Z,54.22
2023-04-26T02:58:41.917Z,54.20
2023-04-26T02:59:43.725Z,54.20
2023-04-26T03:00:45.575Z,54.22
2023-04-26T03:01:47.369Z,54.20
2023-04-26T03:02:49.282Z,54.20
2023-04-26T03:03:51.254Z,54.22
2023-04-26T03:04:53.168Z,54.21
2023-04-26T03:05:55.019Z,54.19
2023-04-26T03:06:56.827Z,54.21
2023-04-26T03:07:58.625Z,54.19
2023-04-26T03:09:00.409Z,54.17
2023-04-26T03:10:02.264Z,54.14
2023-04-26T03:11:04.053Z,54.13
2023-04-26T03:12:05.889Z,54.12
2023-04-26T03:13:07.670Z,54.12
2023-04-26T03:14:09.476Z,54.14
2023-04-26T03:15:11.280Z,54.15
2023-04-26T03:16:13.249Z,54.19
2023-04-26T03:17:15.003Z,54.25
2023-04-26T03:18:16.797Z,54.25
2023-04-26T03:19:18.610Z,54.29
2023-04-26T03:20:20.411Z,54.34
2023-04-26T03:21:22.299Z,54.35
2023-04-26T03:22:24.085Z,54.40
2023-04-26T03:23:25.885Z,54.42
2023-04-26T03:24:27.691Z,54.45
2023-04-26T03:25:29.494Z,54.45
2023-04-26T03:26:31.355Z,54.42
2023-04-26T03:27:33.177Z,54.43
2023-04-26T03:28:34.984Z,54.38
2023-04-26T03:29:36.784Z,54.37
2023-04-26T03:30:38.613Z,54.33
2023-04-26T03:31:40.497Z,54.31
2023-04-26T03:32:42.262Z,54.31
2023-04-26T03:33:44.051Z,54.33
2023-04-26T03:34:45.869Z,54.30
2023-04-26T03:35:47.689Z,54.29
2023-04-26T03:36:49.511Z,54.29
2023-04-26T03:37:53.330Z,54.28
2023-04-26T03:38:54.946Z,54.34
2023-04-26T03:39:56.754Z,54.33
2023-04-26T03:40:58.550Z,54.37
2023-04-26T03:42:00.400Z,54.39
2023-04-26T03:43:02.202Z,54.39
2023-04-26T03:44:04.018Z,54.41
2023-04-26T03:45:05.827Z,54.44
2023-04-26T03:46:07.718Z,54.47
2023-04-26T03:47:09.645Z,54.45
2023-04-26T03:48:11.485Z,54.45
2023-04-26T03:49:13.279Z,54.46
2023-04-26T03:50:15.057Z,54.48
2023-04-26T03:51:16.861Z,54.49
2023-04-26T03:52:18.700Z,54.50
2023-04-26T03:53:20.500Z,54.55
2023-04-26T03:54:22.303Z,54.55
2023-04-26T03:55:24.116Z,54.56
2023-04-26T03:56:26.042Z,54.60
2023-04-26T03:57:27.848Z,54.61
2023-04-26T03:58:29.644Z,54.63
2023-04-26T03:59:31.449Z,54.65
2023-04-26T04:00:33.244Z,54.70
2023-04-26T04:01:34.955Z,54.73
2023-04-26T04:02:36.917Z,54.79
2023-04-26T04:03:41.266Z,54.85
2023-04-26T04:04:42.658Z,54.83
2023-04-26T04:05:44.579Z,54.87
2023-04-26T04:06:46.334Z,54.95
2023-04-26T04:07:48.166Z,55.00
2023-04-26T04:08:50.239Z,55.04
2023-04-26T04:09:52.169Z,55.12
2023-04-26T04:10:53.974Z,55.17
2023-04-26T04:11:55.765Z,55.23
2023-04-26T04:12:57.615Z,55.29
2023-04-26T04:13:59.427Z,55.36
2023-04-26T04:15:01.233Z,55.43
2023-04-26T04:16:03.075Z,55.48
2023-04-26T04:17:04.835Z,55.56
2023-04-26T04:18:06.740Z,55.64
2023-04-26T04:19:08.597Z,55.71
2023-04-26T04:20:10.698Z,55.79
2023-04-26T04:21:12.509Z,55.81
2023-04-26T04:22:14.310Z,55.90
2023-04-26T04:23:16.126Z,55.94
2023-04-26T04:24:17.916Z,55.97
2023-04-26T04:25:19.729Z,56.01
2023-04-26T04:26:21.534Z,56.04
2023-04-26T04:27:23.329Z,56.03
2023-04-26T04:28:25.173Z,56.09
2023-04-26T04:29:26.961Z,56.20
2023-04-26T04:30:28.767Z,56.26
2023-04-26T04:31:30.621Z,56.27
2023-04-26T04:32:32.556Z,56.28
2023-04-26T04:33:34.429Z,56.31
2023-04-26T04:34:36.235Z,56.33
2023-04-26T04:35:38.023Z,56.34
2023-04-26T04:36:39.814Z,56.33
2023-04-26T04:37:41.613Z,56.33
2023-04-26T04:38:43.458Z,56.32
2023-04-26T04:39:45.272Z,56.32
2023-04-26T04:40:47.060Z,56.32
2023-04-26T04:41:48.866Z,56.34
2023-04-26T04:42:50.662Z,56.36
2023-04-26T04:43:52.501Z,56.38
2023-04-26T04:44:54.317Z,56.41
2023-04-26T04:45:56.114Z,56.49
2023-04-26T04:46:57.948Z,56.56
2023-04-26T04:47:59.761Z,56.64
2023-04-26T04:49:01.567Z,56.71
2023-04-26T04:50:03.365Z,56.75
2023-04-26T04:51:05.174Z,56.78
2023-04-26T04:52:06.971Z,56.78
2023-04-26T04:53:08.774Z,56.75
2023-04-26T04:54:10.625Z,56.79
2023-04-26T04:55:12.447Z,56.85
2023-04-26T04:56:15.673Z,56.97
2023-04-26T04:57:17.488Z,57.07
2023-04-26T04:58:19.277Z,57.12
2023-04-26T04:59:21.102Z,57.14
2023-04-26T05:00:22.935Z,57.17
2023-04-26T05:01:24.766Z,57.18
2023-04-26T05:02:26.844Z,57.22
2023-04-26T05:03:28.813Z,57.23
2023-04-26T05:04:30.989Z,57.22
2023-04-26T05:05:32.960Z,57.16
2023-04-26T05:06:34.812Z,57.14
2023-04-26T05:07:36.615Z,57.13
2023-04-26T05:08:38.453Z,57.10
2023-04-26T05:09:40.270Z,57.05
2023-04-26T05:10:42.081Z,57.03
2023-04-26T05:11:43.925Z,57.05
2023-04-26T05:12:45.723Z,57.07
2023-04-26T05:13:47.610Z,57.10
2023-04-26T05:14:49.422Z,57.17
2023-04-26T05:15:51.211Z,57.23
2023-04-26T05:16:53.131Z,57.30
2023-04-26T05:17:55.112Z,57.40
2023-04-26T05:18:56.954Z,57.42
2023-04-26T05:19:58.880Z,57.42
2023-04-26T05:21:00.800Z,57.40
2023-04-26T05:22:02.628Z,57.38
2023-04-26T05:23:04.433Z,57.44
2023-04-26T05:24:06.268Z,57.46
2023-04-26T05:25:08.116Z,57.42
2023-04-26T05:26:10.005Z,57.41
2023-04-26T05:27:11.805Z,57.45
2023-04-26T05:28:13.598Z,57.45
2023-04-26T05:29:15.416Z,57.46
2023-04-26T05:30:17.243Z,57.47
2023-04-26T05:31:19.104Z,57.44
2023-04-26T05:32:20.850Z,57.47
2023-04-26T05:33:22.676Z,57.50
2023-04-26T05:34:24.462Z,57.60
2023-04-26T05:35:26.292Z,57.63
2023-04-26T05:36:29.793Z,57.62
2023-04-26T05:37:31.712Z,57.62
2023-04-26T05:38:33.612Z,57.58
2023-04-26T05:39:35.429Z,57.52
2023-04-26T05:40:37.321Z,57.35
2023-04-26T05:41:39.088Z,57.19
2023-04-26T05:42:40.886Z,57.14
2023-04-26T05:43:42.688Z,57.11
2023-04-26T05:44:44.508Z,57.09
2023-04-26T05:45:46.370Z,57.09
2023-04-26T05:46:49.198Z,57.12
2023-04-26T05:47:51.037Z,57.18
2023-04-26T05:48:52.861Z,57.27
2023-04-26T05:49:54.655Z,57.18
2023-04-26T05:50:56.481Z,57.14
2023-04-26T05:51:58.282Z,57.01
2023-04-26T05:53:00.128Z,56.97
2023-04-26T05:54:01.928Z,56.93
2023-04-26T05:55:03.727Z,56.93
2023-04-26T05:56:06.076Z,56.87
2023-04-26T05:57:07.926Z,56.59
2023-04-26T05:58:09.704Z,56.59
2023-04-26T05:59:11.491Z,56.55
2023-04-26T06:00:13.302Z,56.52
2023-04-26T06:01:15.143Z,56.34
2023-04-26T06:02:17.022Z,56.32
2023-04-26T06:03:19.033Z,56.42
2023-04-26T06:04:21.172Z,56.51
2023-04-26T06:05:23.283Z,56.50
2023-04-26T06:06:25.302Z,56.46
2023-04-26T06:07:27.099Z,56.16
2023-04-26T06:08:28.903Z,56.01
2023-04-26T06:09:30.694Z,56.02
2023-04-26T06:10:32.530Z,56.18
2023-04-26T06:11:34.379Z,56.21
2023-04-26T06:12:36.173Z,56.07
2023-04-26T06:13:38.137Z,55.98
2023-04-26T06:14:39.960Z,56.04
2023-04-26T06:15:41.773Z,56.05
2023-04-26T06:16:43.921Z,55.85
2023-04-26T06:17:45.848Z,55.66
2023-04-26T06:18:47.700Z,55.48
2023-04-26T06:19:49.491Z,55.27
2023-04-26T06:20:51.362Z,54.86
2023-04-26T06:21:53.192Z,54.59
2023-04-26T06:22:55.010Z,54.43
2023-04-26T06:23:56.811Z,54.52
2023-04-26T06:24:58.631Z,54.61
2023-04-26T06:26:00.423Z,54.58
2023-04-26T06:27:02.258Z,54.47
2023-04-26T06:28:04.127Z,54.28
2023-04-26T06:29:05.876Z,53.90
2023-04-26T06:30:07.813Z,53.52
2023-04-26T06:31:09.672Z,53.33
2023-04-26T06:32:11.556Z,53.21
2023-04-26T06:33:13.344Z,53.18
2023-04-26T06:34:15.188Z,53.11
2023-04-26T06:35:16.981Z,52.99
2023-04-26T06:36:18.794Z,52.87
2023-04-26T06:37:20.645Z,52.79
2023-04-26T06:38:22.438Z,52.54
2023-04-26T06:39:24.250Z,52.31
2023-04-26T06:40:26.060Z,52.25
2023-04-26T06:41:29.021Z,52.23
2023-04-26T06:42:30.874Z,52.04
2023-04-26T06:43:32.685Z,51.60
2023-04-26T06:44:34.500Z,51.16
2023-04-26T06:45:36.324Z,50.98
2023-04-26T06:46:38.162Z,51.04
2023-04-26T06:47:40.188Z,51.19
2023-04-26T06:48:41.972Z,51.21
2023-04-26T06:49:43.776Z,50.87
2023-04-26T06:50:45.686Z,50.66
2023-04-26T06:51:47.498Z,50.76
2023-04-26T06:52:49.320Z,50.92
2023-04-26T06:53:51.423Z,50.90
2023-04-26T06:54:57.198Z,50.57
2023-04-26T06:55:56.937Z,50.27
2023-04-26T06:57:00.101Z,49.99
2023-04-26T06:58:02.409Z,49.96
2023-04-26T06:59:04.239Z,50.22
2023-04-26T07:00:06.622Z,50.48
2023-04-26T07:01:08.483Z,50.56
2023-04-26T07:02:10.221Z,50.19
2023-04-26T07:03:12.194Z,50.14
2023-04-26T07:04:14.068Z,50.19
2023-04-26T07:05:16.244Z,49.75
2023-04-26T07:06:18.196Z,49.69
2023-04-26T07:07:19.993Z,49.82
2023-04-26T07:08:21.838Z,49.87
2023-04-26T07:09:23.666Z,48.68
2023-04-26T07:10:25.527Z,48.22
2023-04-26T07:11:27.284Z,48.33
2023-04-26T07:12:29.157Z,48.67
2023-04-26T07:13:30.961Z,49.12
2023-04-26T07:14:32.782Z,49.56
2023-04-26T07:15:34.598Z,49.68
2023-04-26T07:16:36.537Z,49.65
2023-04-26T07:17:38.657Z,49.70
2023-04-26T07:18:40.579Z,49.55
2023-04-26T07:19:42.435Z,49.03
2023-04-26T07:20:44.269Z,48.80
2023-04-26T07:21:46.046Z,48.83
2023-04-26T07:22:47.858Z,48.50
2023-04-26T07:23:49.808Z,48.08
2023-04-26T07:24:51.611Z,48.24
2023-04-26T07:25:54.831Z,48.50
2023-04-26T07:26:57.075Z,48.60
2023-04-26T07:27:58.799Z,48.24
2023-04-26T07:29:00.650Z,48.23
2023-04-26T07:30:02.476Z,48.35
2023-04-26T07:31:05.170Z,48.45
2023-04-26T07:32:08.004Z,48.44
2023-04-26T07:33:10.103Z,48.13
2023-04-26T07:34:12.142Z,47.70
2023-04-26T07:35:14.850Z,47.57
2023-04-26T07:36:18.437Z,47.91
2023-04-26T07:37:20.317Z,48.06
2023-04-26T07:38:22.146Z,48.15
2023-04-26T07:39:23.967Z,47.96
2023-04-26T07:40:25.824Z,47.82
2023-04-26T07:41:27.608Z,47.78
2023-04-26T07:42:29.404Z,47.58
2023-04-26T07:43:31.206Z,47.19
2023-04-26T07:44:33.067Z,46.74
2023-04-26T07:45:34.930Z,46.44
2023-04-26T07:46:36.753Z,46.39
2023-04-26T07:47:38.609Z,46.36
2023-04-26T07:48:40.458Z,46.16
2023-04-26T07:49:42.321Z,46.03
2023-04-26T07:50:44.286Z,45.91
2023-04-26T07:51:46.077Z,45.92
2023-04-26T07:52:47.864Z,45.96
2023-04-26T07:53:49.718Z,45.97
2023-04-26T07:54:51.509Z,45.96
2023-04-26T07:55:53.321Z,45.99
2023-04-26T07:56:55.127Z,45.88
2023-04-26T07:57:56.919Z,45.88
2023-04-26T07:58:58.735Z,45.81
2023-04-26T08:00:00.655Z,45.83
2023-04-26T08:01:02.470Z,45.62
2023-04-26T08:02:04.335Z,45.59
2023-04-26T08:03:06.241Z,45.75
2023-04-26T08:04:08.395Z,45.91
2023-04-26T08:05:10.622Z,46.04
2023-04-26T08:06:12.865Z,46.08
2023-04-26T08:07:14.759Z,46.07
2023-04-26T08:08:18.387Z,46.19
2023-04-26T08:09:20.187Z,46.03
2023-04-26T08:10:22.024Z,46.09
2023-04-26T08:11:23.918Z,46.24
2023-04-26T08:12:25.726Z,46.24
2023-04-26T08:13:29.342Z,46.34
2023-04-26T08:14:31.132Z,46.35
2023-04-26T08:15:32.968Z,46.30
2023-04-26T08:16:34.846Z,46.37
2023-04-26T08:17:36.639Z,46.41
2023-04-26T08:18:38.439Z,46.41
2023-04-26T08:19:40.208Z,46.32
2023-04-26T08:20:42.045Z,46.50
2023-04-26T08:21:43.829Z,46.56
2023-04-26T08:22:45.634Z,46.56
2023-04-26T08:23:47.422Z,46.60
2023-04-26T08:24:49.223Z,46.56
2023-04-26T08:25:51.039Z,46.75
2023-04-26T08:26:52.845Z,46.87
2023-04-26T08:27:54.647Z,46.80
2023-04-26T08:28:56.520Z,46.83
2023-04-26T08:29:58.326Z,46.79
2023-04-26T08:31:00.207Z,47.00
2023-04-26T08:32:02.177Z,46.89
2023-04-26T08:33:04.044Z,46.92
2023-04-26T08:34:05.863Z,47.03
2023-04-26T08:35:07.687Z,47.10
2023-04-26T08:36:09.918Z,47.23
2023-04-26T08:37:11.724Z,47.18
2023-04-26T08:38:13.506Z,47.23
2023-04-26T08:39:15.313Z,47.41
2023-04-26T08:40:17.208Z,47.49
2023-04-26T08:41:19.063Z,47.49
2023-04-26T08:42:20.884Z,47.44
2023-04-26T08:43:22.692Z,47.49
2023-04-26T08:44:24.484Z,47.66
2023-04-26T08:45:26.323Z,47.57
2023-04-26T08:46:28.220Z,47.48
2023-04-26T08:47:29.998Z,47.42
2023-04-26T08:48:31.765Z,47.38
2023-04-26T08:49:33.584Z,47.45
2023-04-26T08:50:35.382Z,47.57
2023-04-26T08:51:37.224Z,47.68
2023-04-26T08:52:39.040Z,47.66
2023-04-26T08:53:40.824Z,47.65
2023-04-26T08:54:42.613Z,47.68
2023-04-26T08:55:44.450Z,47.67
2023-04-26T08:56:46.331Z,47.42
2023-04-26T08:57:48.137Z,47.48
2023-04-26T08:58:49.919Z,47.39
2023-04-26T08:59:51.735Z,47.29
2023-04-26T09:00:53.567Z,47.30
2023-04-26T09:01:55.495Z,47.30
2023-04-26T09:02:57.434Z,47.30
2023-04-26T09:03:59.639Z,46.96
2023-04-26T09:05:02.008Z,46.71
2023-04-26T09:06:07.013Z,46.90
2023-04-26T09:07:09.513Z,47.11
2023-04-26T09:08:11.330Z,47.00
2023-04-26T09:09:13.137Z,47.02
2023-04-26T09:10:15.077Z,47.23
2023-04-26T09:11:16.885Z,47.29
2023-04-26T09:12:18.741Z,47.23
2023-04-26T09:13:20.542Z,47.29
2023-04-26T09:14:22.331Z,47.31
2023-04-26T09:15:24.145Z,47.20
2023-04-26T09:16:25.973Z,47.25
2023-04-26T09:17:28.348Z,47.46
2023-04-26T09:18:30.220Z,47.69
2023-04-26T09:19:32.021Z,47.73
2023-04-26T09:20:33.826Z,47.60
2023-04-26T09:21:35.628Z,47.43
2023-04-26T09:22:37.501Z,47.10
2023-04-26T09:23:39.379Z,46.87
2023-04-26T09:24:41.174Z,46.79
2023-04-26T09:25:42.979Z,46.87
2023-04-26T09:26:44.794Z,46.96
2023-04-26T09:27:46.702Z,47.04
2023-04-26T09:28:48.506Z,46.89
2023-04-26T09:29:50.325Z,46.78
2023-04-26T09:30:52.187Z,46.75
2023-04-26T09:31:54.007Z,46.87
2023-04-26T09:32:55.939Z,46.89
2023-04-26T09:33:57.991Z,46.95
2023-04-26T09:34:59.755Z,47.13
2023-04-26T09:36:01.548Z,47.09
2023-04-26T09:37:03.340Z,46.94
2023-04-26T09:38:11.657Z,46.74
2023-04-26T09:39:08.821Z,46.69
2023-04-26T09:40:10.727Z,46.56
2023-04-26T09:41:12.534Z,46.67
2023-04-26T09:42:14.342Z,46.69
2023-04-26T09:43:16.304Z,46.63
2023-04-26T09:44:18.225Z,46.74
2023-04-26T09:45:19.991Z,46.80
2023-04-26T09:46:21.830Z,46.93
2023-04-26T09:47:23.636Z,47.06
2023-04-26T09:48:25.451Z,47.06
2023-04-26T09:49:27.248Z,47.05
2023-04-26T09:50:29.160Z,46.85
2023-04-26T09:51:30.938Z,46.70
2023-04-26T09:52:32.739Z,46.48
2023-04-26T09:53:34.607Z,46.48
2023-04-26T09:54:36.398Z,46.66
2023-04-26T09:55:38.212Z,46.67
2023-04-26T09:56:40.013Z,46.65
2023-04-26T09:57:41.847Z,46.67
2023-04-26T09:58:43.670Z,46.49
2023-04-26T09:59:45.365Z,46.37
2023-04-26T10:00:47.215Z,46.29
2023-04-26T10:01:48.983Z,46.21
2023-04-26T10:02:50.870Z,46.12
2023-04-26T10:03:53.179Z,46.41
2023-04-26T10:04:55.255Z,46.45
2023-04-26T10:05:57.047Z,46.30
2023-04-26T10:06:58.857Z,46.08
2023-04-26T10:08:00.649Z,46.18
2023-04-26T10:09:02.536Z,46.32
2023-04-26T10:10:04.654Z,46.28
2023-04-26T10:11:06.528Z,46.06
2023-04-26T10:12:08.373Z,45.89
2023-04-26T10:13:10.182Z,45.71
2023-04-26T10:14:12.006Z,45.77
2023-04-26T10:15:13.803Z,45.75
2023-04-26T10:16:16.087Z,45.84
2023-04-26T10:17:17.826Z,45.97
2023-04-26T10:18:19.622Z,46.16
2023-04-26T10:19:21.465Z,46.36
2023-04-26T10:20:23.283Z,46.36
2023-04-26T10:21:25.090Z,46.24
2023-04-26T10:22:26.894Z,46.14
2023-04-26T10:23:28.708Z,46.11
2023-04-26T10:24:30.565Z,45.98
2023-04-26T10:25:32.357Z,45.82
2023-04-26T10:26:34.155Z,45.65
2023-04-26T10:27:35.964Z,45.55
2023-04-26T10:28:37.769Z,45.61
2023-04-26T10:29:39.625Z,45.52
2023-04-26T10:30:41.433Z,45.62
2023-04-26T10:31:43.243Z,45.45
2023-04-26T10:32:45.108Z,45.30
2023-04-26T10:33:46.935Z,45.29
2023-04-26T10:34:48.775Z,45.33
2023-04-26T10:35:50.574Z,45.39
2023-04-26T10:36:52.782Z,45.52
2023-04-26T10:37:54.589Z,45.60
2023-04-26T10:38:56.399Z,45.64
2023-04-26T10:39:58.240Z,45.77
2023-04-26T10:41:00.037Z,45.83
2023-04-26T10:42:01.849Z,45.73
2023-04-26T10:43:03.658Z,45.52
2023-04-26T10:44:05.441Z,45.56
2023-04-26T10:45:07.300Z,45.47
2023-04-26T10:46:10.466Z,45.43
2023-04-26T10:47:12.216Z,45.36
2023-04-26T10:48:14.036Z,45.05
2023-04-26T10:49:15.812Z,44.84
2023-04-26T10:50:17.958Z,44.67
2023-04-26T10:51:19.759Z,44.69
2023-04-26T10:52:21.550Z,44.79
2023-04-26T10:53:23.357Z,44.86
2023-04-26T10:54:25.168Z,44.85
2023-04-26T10:55:27.001Z,44.65
2023-04-26T10:56:28.818Z,44.32
2023-04-26T10:57:30.615Z,44.15
2023-04-26T10:58:32.419Z,44.16
2023-04-26T10:59:47.127Z,44.17
2023-04-26T11:00:38.287Z,44.03
2023-04-26T11:01:40.128Z,43.70
2023-04-26T11:02:42.094Z,43.52
2023-04-26T11:03:44.124Z,43.36
2023-04-26T11:04:46.150Z,43.19
2023-04-26T11:05:47.980Z,43.18
2023-04-26T11:06:49.813Z,43.01
2023-04-26T11:07:51.572Z,42.97
2023-04-26T11:08:53.603Z,42.92
2023-04-26T11:09:55.593Z,42.83
2023-04-26T11:10:57.453Z,42.62
2023-04-26T11:11:59.238Z,42.48
2023-04-26T11:13:01.075Z,42.23
2023-04-26T11:14:02.851Z,42.43
2023-04-26T11:15:04.648Z,42.57
2023-04-26T11:16:06.615Z,42.66
2023-04-26T11:17:08.422Z,42.50
2023-04-26T11:18:10.226Z,42.59
2023-04-26T11:19:12.018Z,42.54
2023-04-26T11:20:13.855Z,42.57
2023-04-26T11:21:15.759Z,42.89
2023-04-26T11:22:17.562Z,42.92
2023-04-26T11:23:19.373Z,42.50
2023-04-26T11:24:21.245Z,42.18
2023-04-26T11:25:23.051Z,42.06
2023-04-26T11:26:24.883Z,41.72
2023-04-26T11:27:26.670Z,41.41
2023-04-26T11:28:28.494Z,41.29
2023-04-26T11:29:30.275Z,41.12
2023-04-26T11:30:32.088Z,40.98
2023-04-26T11:31:33.970Z,40.99
2023-04-26T11:32:35.849Z,40.72
2023-04-26T11:33:37.621Z,40.52
2023-04-26T11:34:39.508Z,40.40
2023-04-26T11:35:41.323Z,40.44
2023-04-26T11:36:43.267Z,40.38
2023-04-26T11:37:45.061Z,40.61
2023-04-26T11:38:46.867Z,40.37
2023-04-26T11:39:48.670Z,40.44
2023-04-26T11:40:50.460Z,40.62
2023-04-26T11:41:52.928Z,40.45
2023-04-26T11:42:54.718Z,40.22
2023-04-26T11:43:56.599Z,40.06
2023-04-26T11:44:58.448Z,39.82
2023-04-26T11:46:00.235Z,39.77
2023-04-26T11:47:02.209Z,39.84
2023-04-26T11:48:04.232Z,39.60
2023-04-26T11:49:06.067Z,39.64
2023-04-26T11:50:08.171Z,39.78
2023-04-26T11:51:09.976Z,39.98
2023-04-26T11:52:11.799Z,39.78
2023-04-26T11:53:13.630Z,39.57
2023-04-26T11:54:15.420Z,39.57
2023-04-26T11:55:17.218Z,39.67
2023-04-26T11:56:19.319Z,39.76
2023-04-26T11:57:21.147Z,39.63
2023-04-26T11:58:22.939Z,39.88
2023-04-26T11:59:24.733Z,39.87
2023-04-26T12:00:26.545Z,39.62
2023-04-26T12:01:28.338Z,39.41
2023-04-26T12:02:32.043Z,39.35
2023-04-26T12:03:34.008Z,39.09
2023-04-26T12:04:36.114Z,38.98
2023-04-26T12:05:38.324Z,38.97
2023-04-26T12:06:40.314Z,39.07
2023-04-26T12:07:42.174Z,39.09
2023-04-26T12:08:43.966Z,39.21
2023-04-26T12:09:45.774Z,39.27
2023-04-26T12:10:47.766Z,39.28
2023-04-26T12:11:49.537Z,39.16
2023-04-26T12:12:51.390Z,39.14
2023-04-26T12:13:53.194Z,39.06
2023-04-26T12:14:55.081Z,39.03
2023-04-26T12:15:56.951Z,38.90
2023-04-26T12:16:58.810Z,39.22
2023-04-26T12:18:00.719Z,39.38
2023-04-26T12:19:02.489Z,39.10
2023-04-26T12:20:04.384Z,39.03
2023-04-26T12:21:06.194Z,39.22
2023-04-26T12:22:08.005Z,39.20
2023-04-26T12:23:09.851Z,39.43
2023-04-26T12:24:11.638Z,39.70
2023-04-26T12:25:13.436Z,39.41
2023-04-26T12:26:15.371Z,38.96
2023-04-26T12:27:17.180Z,38.95
2023-04-26T12:28:18.994Z,38.97
2023-04-26T12:29:20.777Z,38.87
2023-04-26T12:30:22.954Z,39.01
2023-04-26T12:31:24.816Z,39.07
2023-04-26T12:32:26.707Z,39.34
2023-04-26T12:33:28.657Z,39.39
2023-04-26T12:34:30.428Z,39.33
2023-04-26T12:35:32.231Z,39.38
2023-04-26T12:36:34.028Z,39.44
2023-04-26T12:37:35.899Z,39.71
2023-04-26T12:38:37.789Z,39.83
2023-04-26T12:39:39.589Z,39.49
2023-04-26T12:40:42.066Z,39.41
2023-04-26T12:41:43.884Z,39.48
2023-04-26T12:42:45.670Z,39.40
2023-04-26T12:43:47.491Z,39.28
2023-04-26T12:44:49.301Z,39.23
2023-04-26T12:45:51.129Z,39.27
2023-04-26T12:46:52.914Z,39.22
2023-04-26T12:47:54.822Z,39.17
2023-04-26T12:48:56.641Z,38.96
2023-04-26T12:49:58.469Z,39.03
2023-04-26T12:51:00.258Z,39.00
2023-04-26T12:52:02.061Z,39.09
2023-04-26T12:53:03.852Z,39.13
2023-04-26T12:54:05.699Z,39.30
2023-04-26T12:55:07.500Z,39.28
2023-04-26T12:56:09.845Z,39.24
2023-04-26T12:57:11.710Z,39.31
2023-04-26T12:58:13.731Z,39.24
2023-04-26T12:59:15.769Z,39.32
2023-04-26T13:00:17.584Z,39.40
2023-04-26T13:01:19.528Z,39.37
2023-04-26T13:02:21.553Z,39.43
2023-04-26T13:03:23.447Z,39.52
2023-04-26T13:04:25.479Z,39.61
2023-04-26T13:05:27.439Z,39.58
2023-04-26T13:06:29.226Z,39.48
2023-04-26T13:07:31.021Z,39.51
2023-04-26T13:08:32.820Z,39.37
2023-04-26T13:09:34.671Z,39.76
2023-04-26T13:10:36.482Z,39.79
2023-04-26T13:11:38.269Z,39.79
2023-04-26T13:12:40.105Z,39.87
2023-04-26T13:13:44.230Z,39.91
2023-04-26T13:14:45.537Z,40.06
2023-04-26T13:15:47.408Z,39.99
2023-04-26T13:16:49.223Z,40.03